createdAt,value
2018-02-25T00:00:11.605Z,-1.86
2018-02-25T00:01:25.864Z,-1.82
2018-02-25T00:02:40.588Z,-1.86
2018-02-25T00:03:54.896Z,-1.93
2018-02-25T00:05:09.428Z,-1.89
2018-02-25T00:06:23.935Z,-1.89
2018-02-25T00:07:38.186Z,-1.9
2018-02-25T00:08:51.948Z,-1.92
2018-02-25T00:10:06.663Z,-1.92
2018-02-25T00:11:20.922Z,-1.97
2018-02-25T00:12:35.161Z,-1.9
2018-02-25T00:13:49.421Z,-1.93
2018-02-25T00:15:03.184Z,-1.99
2018-02-25T00:16:17.427Z,-1.94
2018-02-25T00:17:31.733Z,-1.97
2018-02-25T00:18:46.099Z,-2.02
2018-02-25T00:20:00.360Z,-1.99
2018-02-25T00:21:14.877Z,-1.99
2018-02-25T00:22:28.996Z,-2
2018-02-25T00:23:43.023Z,-2.04
2018-02-25T00:24:57.379Z,-2.07
2018-02-25T00:26:11.074Z,-2.13
2018-02-25T00:27:25.588Z,-1.99
2018-02-25T00:28:39.876Z,-2.04
2018-02-25T00:29:54.155Z,-2.11
2018-02-25T00:31:08.400Z,-2.07
2018-02-25T00:32:22.876Z,-2.08
2018-02-25T00:33:37.376Z,-2.07
2018-02-25T00:34:52.150Z,-2.11
2018-02-25T00:36:06.391Z,-2.13
2018-02-25T00:37:20.132Z,-2.1
2018-02-25T00:38:34.141Z,-2.15
2018-02-25T00:39:48.659Z,-2.18
2018-02-25T00:41:02.904Z,-2.2
2018-02-25T00:42:16.883Z,-2.15
2018-02-25T00:43:30.649Z,-2.22
2018-02-25T00:44:45.142Z,-2.15
2018-02-25T00:45:59.117Z,-2.32
2018-02-25T00:47:13.446Z,-2.22
2018-02-25T00:48:27.179Z,-2.2
2018-02-25T00:49:40.897Z,-2.33
2018-02-25T00:50:55.199Z,-2.32
2018-02-25T00:52:09.690Z,-2.28
2018-02-25T00:53:23.672Z,-2.33
2018-02-25T00:54:38.357Z,-2.36
2018-02-25T00:55:52.248Z,-2.36
2018-02-25T00:57:06.725Z,-2.36
2018-02-25T00:58:20.978Z,-2.32
2018-02-25T00:59:35.216Z,-2.33
2018-02-25T01:00:49.219Z,-2.39
2018-02-25T01:02:02.990Z,-2.39
2018-02-25T01:03:17.471Z,-2.34
2018-02-25T01:04:31.496Z,-2.39
2018-02-25T01:05:46.225Z,-2.34
2018-02-25T01:07:00.212Z,-2.33
2018-02-25T01:08:14.852Z,-2.42
2018-02-25T01:09:28.615Z,-2.42
2018-02-25T01:10:43.093Z,-2.33
2018-02-25T01:11:57.348Z,-2.47
2018-02-25T01:13:11.610Z,-2.48
2018-02-25T01:14:25.357Z,-2.44
2018-02-25T01:15:39.617Z,-2.47
2018-02-25T01:16:53.853Z,-2.47
2018-02-25T01:18:07.375Z,-2.47
2018-02-25T01:19:21.358Z,-2.54
2018-02-25T01:20:35.833Z,-2.44
2018-02-25T01:21:50.083Z,-2.5
2018-02-25T01:23:04.330Z,-2.51
2018-02-25T01:24:18.110Z,-2.47
2018-02-25T01:25:32.350Z,-2.57
2018-02-25T01:26:46.620Z,-2.55
2018-02-25T01:28:00.839Z,-2.61
2018-02-25T01:29:14.940Z,-2.55
2018-02-25T01:30:28.656Z,-2.58
2018-02-25T01:31:42.191Z,-2.57
2018-02-25T01:32:56.424Z,-2.62
2018-02-25T01:34:09.912Z,-2.65
2018-02-25T01:35:24.115Z,-2.65
2018-02-25T01:36:38.084Z,-2.68
2018-02-25T01:37:52.083Z,-2.7
2018-02-25T01:39:06.316Z,-2.68
2018-02-25T01:40:20.779Z,-2.7
2018-02-25T01:41:34.776Z,-2.75
2018-02-25T01:42:48.535Z,-2.68
2018-02-25T01:44:03.044Z,-2.78
2018-02-25T01:45:17.000Z,-2.68
2018-02-25T01:46:30.998Z,-2.75
2018-02-25T01:47:44.984Z,-2.65
2018-02-25T01:48:58.988Z,-2.69
2018-02-25T01:50:13.716Z,-2.72
2018-02-25T01:51:27.930Z,-2.78
2018-02-25T01:52:41.942Z,-2.7
2018-02-25T01:53:55.944Z,-2.76
2018-02-25T01:55:09.965Z,-2.72
2018-02-25T01:56:23.955Z,-2.8
2018-02-25T01:57:38.395Z,-2.76
2018-02-25T01:58:52.401Z,-2.81
2018-02-25T02:00:07.148Z,-2.83
2018-02-25T02:01:21.095Z,-2.89
2018-02-25T02:02:34.966Z,-2.75
2018-02-25T02:03:49.190Z,-2.84
2018-02-25T02:05:03.670Z,-2.86
2018-02-25T02:06:17.652Z,-2.9
2018-02-25T02:07:31.614Z,-2.86
2018-02-25T02:08:45.857Z,-2.86
2018-02-25T02:10:00.082Z,-2.94
2018-02-25T02:11:14.544Z,-2.91
2018-02-25T02:12:28.841Z,-2.99
2018-02-25T02:13:42.120Z,-2.87
2018-02-25T02:14:55.359Z,-2.91
2018-02-25T02:16:09.584Z,-2.94
2018-02-25T02:17:24.092Z,-2.91
2018-02-25T02:18:38.121Z,-2.94
2018-02-25T02:19:52.350Z,-2.86
2018-02-25T02:21:06.874Z,-2.93
2018-02-25T02:22:21.111Z,-3.07
2018-02-25T02:23:35.095Z,-3.08
2018-02-25T02:24:49.545Z,-3.02
2018-02-25T02:26:04.077Z,-3.05
2018-02-25T02:27:18.060Z,-3.01
2018-02-25T02:28:32.551Z,-3.11
2018-02-25T02:29:47.035Z,-3.12
2018-02-25T02:31:01.268Z,-3.12
2018-02-25T02:32:15.035Z,-3.04
2018-02-25T02:33:28.804Z,-3.15
2018-02-25T02:34:43.328Z,-3.19
2018-02-25T02:35:58.201Z,-3.09
2018-02-25T02:37:12.699Z,-3.11
2018-02-25T02:38:26.961Z,-3.14
2018-02-25T02:39:41.239Z,-3.22
2018-02-25T02:40:55.203Z,-3.26
2018-02-25T02:42:09.688Z,-3.23
2018-02-25T02:43:23.212Z,-3.23
2018-02-25T02:44:36.991Z,-3.15
2018-02-25T02:45:50.963Z,-3.17
2018-02-25T02:47:05.480Z,-3.17
2018-02-25T02:48:19.734Z,-3.19
2018-02-25T02:49:34.189Z,-3.22
2018-02-25T02:50:48.431Z,-3.2
2018-02-25T02:52:02.408Z,-3.23
2018-02-25T02:53:16.646Z,-3.27
2018-02-25T02:54:30.909Z,-3.25
2018-02-25T02:55:45.394Z,-3.25
2018-02-25T02:57:00.098Z,-3.3
2018-02-25T02:58:14.330Z,-3.29
2018-02-25T02:59:28.336Z,-3.3
2018-02-25T03:00:42.566Z,-3.33
2018-02-25T03:01:56.961Z,-3.37
2018-02-25T03:03:11.546Z,-3.36
2018-02-25T03:04:25.304Z,-3.33
2018-02-25T03:05:39.783Z,-3.33
2018-02-25T03:06:53.788Z,-3.33
2018-02-25T03:08:08.273Z,-3.36
2018-02-25T03:09:22.620Z,-3.43
2018-02-25T03:10:36.406Z,-3.46
2018-02-25T03:11:50.379Z,-3.4
2018-02-25T03:13:04.600Z,-3.41
2018-02-25T03:14:18.819Z,-3.38
2018-02-25T03:15:33.281Z,-3.48
2018-02-25T03:16:47.246Z,-3.47
2018-02-25T03:18:01.290Z,-3.48
2018-02-25T03:19:14.501Z,-3.48
2018-02-25T03:20:29.042Z,-3.48
2018-02-25T03:21:43.044Z,-3.5
2018-02-25T03:22:56.813Z,-3.5
2018-02-25T03:24:11.002Z,-3.58
2018-02-25T03:25:25.042Z,-3.66
2018-02-25T03:26:39.506Z,-3.55
2018-02-25T03:27:53.487Z,-3.47
2018-02-25T03:29:07.962Z,-3.59
2018-02-25T03:30:21.980Z,-3.61
2018-02-25T03:31:35.980Z,-3.66
2018-02-25T03:32:50.219Z,-3.64
2018-02-25T03:34:04.681Z,-3.68
2018-02-25T03:35:18.895Z,-3.65
2018-02-25T03:36:33.637Z,-3.69
2018-02-25T03:37:47.832Z,-3.71
2018-02-25T03:39:02.055Z,-3.66
2018-02-25T03:40:15.802Z,-3.68
2018-02-25T03:41:29.545Z,-3.68
2018-02-25T03:42:43.399Z,-3.62
2018-02-25T03:43:57.620Z,-3.59
2018-02-25T03:45:11.575Z,-3.65
2018-02-25T03:46:26.034Z,-3.77
2018-02-25T03:47:40.536Z,-3.71
2018-02-25T03:48:54.994Z,-3.69
2018-02-25T03:50:09.487Z,-3.66
2018-02-25T03:51:23.989Z,-3.68
2018-02-25T03:52:37.458Z,-3.69
2018-02-25T03:53:51.693Z,-3.71
2018-02-25T03:55:05.664Z,-3.65
2018-02-25T03:56:19.683Z,-3.8
2018-02-25T03:57:33.904Z,-3.83
2018-02-25T03:58:47.872Z,-3.77
2018-02-25T04:00:01.621Z,-3.81
2018-02-25T04:01:16.161Z,-3.83
2018-02-25T04:02:30.643Z,-3.85
2018-02-25T04:03:44.617Z,-3.81
2018-02-25T04:04:58.584Z,-3.8
2018-02-25T04:06:12.073Z,-3.81
2018-02-25T04:07:26.340Z,-3.84
2018-02-25T04:08:40.358Z,-3.87
2018-02-25T04:09:54.635Z,-3.96
2018-02-25T04:11:08.859Z,-3.99
2018-02-25T04:12:22.869Z,-3.94
2018-02-25T04:13:37.609Z,-3.91
2018-02-25T04:14:51.103Z,-3.9
2018-02-25T04:16:04.960Z,-3.99
2018-02-25T04:17:18.983Z,-4.04
2018-02-25T04:18:32.777Z,-3.95
2018-02-25T04:19:47.261Z,-3.98
2018-02-25T04:21:01.786Z,-3.96
2018-02-25T04:22:16.530Z,-3.99
2018-02-25T04:23:30.749Z,-4.02
2018-02-25T04:24:44.990Z,-4.02
2018-02-25T04:25:58.772Z,-4.08
2018-02-25T04:27:13.028Z,-4.01
2018-02-25T04:28:27.032Z,-4.02
2018-02-25T04:29:41.288Z,-4.14
2018-02-25T04:30:55.813Z,-4.13
2018-02-25T04:32:09.835Z,-4.17
2018-02-25T04:33:23.888Z,-4.14
2018-02-25T04:34:38.374Z,-4.08
2018-02-25T04:35:52.618Z,-4.06
2018-02-25T04:37:06.883Z,-4.12
2018-02-25T04:38:20.877Z,-4.06
2018-02-25T04:39:35.131Z,-4.16
2018-02-25T04:40:49.612Z,-4.08
2018-02-25T04:42:03.823Z,-4.06
2018-02-25T04:43:17.817Z,-4.12
2018-02-25T04:44:31.860Z,-4.2
2018-02-25T04:45:46.331Z,-4.2
2018-02-25T04:47:00.804Z,-4.14
2018-02-25T04:48:14.353Z,-4.22
2018-02-25T04:49:28.979Z,-4.19
2018-02-25T04:50:43.468Z,-4.22
2018-02-25T04:51:57.454Z,-4.24
2018-02-25T04:53:11.693Z,-4.22
2018-02-25T04:54:25.439Z,-4.27
2018-02-25T04:55:39.409Z,-4.27
2018-02-25T04:56:53.398Z,-4.3
2018-02-25T04:58:08.124Z,-4.27
2018-02-25T04:59:22.136Z,-4.33
2018-02-25T05:00:36.144Z,-4.34
2018-02-25T05:01:50.631Z,-4.31
2018-02-25T05:03:05.128Z,-4.37
2018-02-25T05:04:19.418Z,-4.35
2018-02-25T05:05:33.408Z,-4.37
2018-02-25T05:06:47.897Z,-4.35
2018-02-25T05:08:01.902Z,-4.4
2018-02-25T05:09:15.921Z,-4.4
2018-02-25T05:10:29.914Z,-4.33
2018-02-25T05:11:43.651Z,-4.34
2018-02-25T05:12:57.419Z,-4.41
2018-02-25T05:14:11.440Z,-4.37
2018-02-25T05:15:24.919Z,-4.34
2018-02-25T05:16:39.395Z,-4.37
2018-02-25T05:17:53.362Z,-4.44
2018-02-25T05:19:07.340Z,-4.34
2018-02-25T05:20:21.107Z,-4.35
2018-02-25T05:21:35.579Z,-4.49
2018-02-25T05:22:49.683Z,-4.42
2018-02-25T05:24:04.371Z,-4.34
2018-02-25T05:25:18.371Z,-4.35
2018-02-25T05:26:33.102Z,-4.4
2018-02-25T05:27:47.127Z,-4.45
2018-02-25T05:29:01.359Z,-4.4
2018-02-25T05:30:15.836Z,-4.45
2018-02-25T05:31:29.626Z,-4.44
2018-02-25T05:32:44.105Z,-4.59
2018-02-25T05:33:58.563Z,-4.44
2018-02-25T05:35:12.833Z,-4.51
2018-02-25T05:36:26.570Z,-4.44
2018-02-25T05:37:41.038Z,-4.55
2018-02-25T05:38:54.791Z,-4.49
2018-02-25T05:40:08.748Z,-4.44
2018-02-25T05:41:23.017Z,-4.53
2018-02-25T05:42:37.465Z,-4.52
2018-02-25T05:43:51.202Z,-4.51
2018-02-25T05:45:04.971Z,-4.56
2018-02-25T05:46:19.206Z,-4.51
2018-02-25T05:47:33.430Z,-4.42
2018-02-25T05:48:48.161Z,-4.52
2018-02-25T05:50:02.629Z,-4.55
2018-02-25T05:51:17.070Z,-4.52
2018-02-25T05:52:31.061Z,-4.53
2018-02-25T05:53:44.811Z,-4.56
2018-02-25T05:54:59.277Z,-4.56
2018-02-25T05:56:13.833Z,-4.49
2018-02-25T05:57:27.833Z,-4.53
2018-02-25T05:58:42.574Z,-4.55
2018-02-25T05:59:57.060Z,-4.56
2018-02-25T06:01:10.285Z,-4.51
2018-02-25T06:02:24.511Z,-4.51
2018-02-25T06:03:38.747Z,-4.51
2018-02-25T06:04:53.006Z,-4.53
2018-02-25T06:06:06.758Z,-4.49
2018-02-25T06:07:21.247Z,-4.52
2018-02-25T06:08:35.211Z,-4.56
2018-02-25T06:09:49.682Z,-4.61
2018-02-25T06:11:03.669Z,-4.52
2018-02-25T06:12:18.134Z,-4.55
2018-02-25T06:13:32.869Z,-4.44
2018-02-25T06:14:47.365Z,-4.52
2018-02-25T06:16:01.378Z,-4.47
2018-02-25T06:17:14.899Z,-4.52
2018-02-25T06:18:28.910Z,-4.47
2018-02-25T06:19:43.647Z,-4.51
2018-02-25T06:20:57.685Z,-4.49
2018-02-25T06:22:12.012Z,-4.53
2018-02-25T06:23:25.758Z,-4.52
2018-02-25T06:24:40.030Z,-4.51
2018-02-25T06:25:54.272Z,-4.55
2018-02-25T06:27:08.780Z,-4.55
2018-02-25T06:28:22.773Z,-4.56
2018-02-25T06:29:37.360Z,-4.51
2018-02-25T06:30:51.896Z,-4.47
2018-02-25T06:32:06.121Z,-4.53
2018-02-25T06:33:19.844Z,-4.44
2018-02-25T06:34:33.872Z,-4.44
2018-02-25T06:35:48.149Z,-4.38
2018-02-25T06:37:01.874Z,-4.44
2018-02-25T06:38:16.389Z,-4.37
2018-02-25T06:39:30.393Z,-4.35
2018-02-25T06:40:45.118Z,-4.45
2018-02-25T06:41:58.860Z,-4.41
2018-02-25T06:43:13.319Z,-4.35
2018-02-25T06:44:27.801Z,-4.45
2018-02-25T06:45:42.049Z,-4.44
2018-02-25T06:46:56.314Z,-4.42
2018-02-25T06:48:10.802Z,-4.37
2018-02-25T06:49:25.068Z,-4.37
2018-02-25T06:50:39.073Z,-4.37
2018-02-25T06:51:52.854Z,-4.3
2018-02-25T06:53:07.114Z,-4.31
2018-02-25T06:54:20.624Z,-4.31
2018-02-25T06:55:34.643Z,-4.27
2018-02-25T06:56:48.653Z,-4.27
2018-02-25T06:58:02.678Z,-4.26
2018-02-25T06:59:16.442Z,-4.31
2018-02-25T07:00:30.931Z,-4.3
2018-02-25T07:01:44.943Z,-4.27
2018-02-25T07:02:58.575Z,-4.3
2018-02-25T07:04:13.162Z,-4.19
2018-02-25T07:05:27.684Z,-4.2
2018-02-25T07:06:42.447Z,-4.2
2018-02-25T07:07:56.748Z,-4.22
2018-02-25T07:09:10.496Z,-4.2
2018-02-25T07:10:24.997Z,-4.23
2018-02-25T07:11:39.758Z,-4.17
2018-02-25T07:12:53.552Z,-4.22
2018-02-25T07:14:07.061Z,-4.2
2018-02-25T07:15:20.597Z,-4.23
2018-02-25T07:16:35.076Z,-4.13
2018-02-25T07:17:49.795Z,-4.13
2018-02-25T07:19:04.059Z,-4.09
2018-02-25T07:20:18.288Z,-4.08
2018-02-25T07:21:47.463Z,-4.01
2018-02-25T07:23:01.184Z,-3.95
2018-02-25T07:24:15.174Z,-4.04
2018-02-25T07:25:29.018Z,-3.99
2018-02-25T07:26:42.802Z,-3.99
2018-02-25T07:27:56.894Z,-3.95
2018-02-25T07:29:10.406Z,-4.01
2018-02-25T07:30:24.653Z,-4.02
2018-02-25T07:31:38.417Z,-3.9
2018-02-25T07:32:52.719Z,-3.95
2018-02-25T07:34:06.706Z,-3.94
2018-02-25T07:35:20.555Z,-3.94
2018-02-25T07:36:34.326Z,-3.91
2018-02-25T07:37:48.571Z,-3.95
2018-02-25T07:39:02.560Z,-3.87
2018-02-25T07:40:16.592Z,-3.91
2018-02-25T07:41:30.841Z,-3.87
2018-02-25T07:42:44.580Z,-3.81
2018-02-25T07:43:59.052Z,-3.78
2018-02-25T07:45:13.074Z,-3.83
2018-02-25T07:47:55.483Z,-3.81
2018-02-25T07:49:09.772Z,-3.78
2018-02-25T07:50:23.939Z,-3.77
2018-02-25T07:51:37.996Z,-3.81
2018-02-25T07:52:52.268Z,-3.68
2018-02-25T07:54:06.733Z,-3.68
2018-02-25T07:55:20.985Z,-3.66
2018-02-25T07:56:35.227Z,-3.66
2018-02-25T07:57:49.906Z,-3.75
2018-02-25T07:59:03.876Z,-3.61
2018-02-25T08:00:17.909Z,-3.55
2018-02-25T08:01:32.400Z,-3.56
2018-02-25T08:02:46.908Z,-3.51
2018-02-25T08:04:01.006Z,-3.53
2018-02-25T08:05:15.499Z,-3.47
2018-02-25T08:06:29.727Z,-3.5
2018-02-25T08:07:44.134Z,-3.58
2018-02-25T08:08:58.108Z,-3.48
2018-02-25T08:10:12.185Z,-3.46
2018-02-25T08:11:26.380Z,-3.44
2018-02-25T08:12:40.494Z,-3.47
2018-02-25T08:13:54.547Z,-3.43
2018-02-25T08:15:08.596Z,-3.43
2018-02-25T08:16:22.380Z,-3.43
2018-02-25T08:17:36.885Z,-3.48
2018-02-25T08:18:50.908Z,-3.46
2018-02-25T08:20:04.655Z,-3.41
2018-02-25T08:21:18.934Z,-3.27
2018-02-25T08:22:33.212Z,-3.32
2018-02-25T08:23:47.214Z,-3.36
2018-02-25T08:25:01.252Z,-3.36
2018-02-25T08:26:15.309Z,-3.43
2018-02-25T08:27:29.068Z,-3.3
2018-02-25T08:28:42.825Z,-3.32
2018-02-25T08:29:57.049Z,-3.3
2018-02-25T08:31:11.044Z,-3.27
2018-02-25T08:32:25.805Z,-3.22
2018-02-25T08:33:39.558Z,-3.17
2018-02-25T08:34:54.040Z,-3.08
2018-02-25T08:36:08.025Z,-3.11
2018-02-25T08:37:36.671Z,-3.05
2018-02-25T08:38:50.676Z,-3.15
2018-02-25T08:40:05.303Z,-3.15
2018-02-25T08:41:19.577Z,-3.27
2018-02-25T08:42:34.096Z,-3.29
2018-02-25T08:43:48.100Z,-3.2
2018-02-25T08:45:02.206Z,-3.2
2018-02-25T08:46:16.721Z,-3.17
2018-02-25T08:47:30.765Z,-3.05
2018-02-25T08:48:44.682Z,-3.01
2018-02-25T08:49:58.927Z,-3.07
2018-02-25T08:51:13.256Z,-3.08
2018-02-25T08:52:27.291Z,-3.22
2018-02-25T08:53:41.048Z,-3.02
2018-02-25T08:54:55.017Z,-3.07
2018-02-25T08:56:08.754Z,-3.05
2018-02-25T08:57:23.094Z,-3.05
2018-02-25T08:58:37.580Z,-2.83
2018-02-25T08:59:52.114Z,-2.89
2018-02-25T09:01:06.378Z,-2.76
2018-02-25T09:02:20.644Z,-2.76
2018-02-25T09:03:34.890Z,-2.7
2018-02-25T09:04:49.152Z,-2.75
2018-02-25T09:06:03.153Z,-2.76
2018-02-25T09:07:17.434Z,-2.66
2018-02-25T09:08:31.441Z,-2.8
2018-02-25T09:09:45.920Z,-2.84
2018-02-25T09:10:59.701Z,-2.76
2018-02-25T09:12:13.687Z,-2.78
2018-02-25T09:13:28.312Z,-2.65
2018-02-25T09:14:42.540Z,-2.7
2018-02-25T09:15:57.045Z,-2.62
2018-02-25T09:17:10.568Z,-2.51
2018-02-25T09:18:25.119Z,-2.55
2018-02-25T09:19:39.356Z,-2.51
2018-02-25T09:20:53.141Z,-2.54
2018-02-25T09:22:07.621Z,-2.57
2018-02-25T09:23:21.377Z,-2.58
2018-02-25T09:24:35.182Z,-2.61
2018-02-25T09:25:48.692Z,-2.63
2018-02-25T09:27:02.988Z,-2.62
2018-02-25T09:28:17.632Z,-2.47
2018-02-25T09:29:31.595Z,-2.69
2018-02-25T09:30:45.827Z,-2.65
2018-02-25T09:31:59.822Z,-2.47
2018-02-25T09:33:13.816Z,-2.52
2018-02-25T09:34:27.565Z,-2.45
2018-02-25T09:35:41.855Z,-2.4
2018-02-25T09:36:55.621Z,-2.22
2018-02-25T09:38:09.632Z,-2.17
2018-02-25T09:39:23.619Z,-2.17
2018-02-25T09:40:37.679Z,-2.07
2018-02-25T09:41:52.178Z,-2.2
2018-02-25T09:43:06.436Z,-2.22
2018-02-25T09:44:20.450Z,-2.23
2018-02-25T09:45:34.424Z,-2.17
2018-02-25T09:46:48.807Z,-2.17
2018-02-25T09:48:03.052Z,-2.17
2018-02-25T09:49:17.102Z,-2.18
2018-02-25T09:50:30.930Z,-2.25
2018-02-25T09:51:45.446Z,-2.23
2018-02-25T09:52:59.701Z,-2.18
2018-02-25T09:54:14.042Z,-2.22
2018-02-25T09:55:28.243Z,-2.2
2018-02-25T09:56:42.539Z,-2.22
2018-02-25T09:57:56.808Z,-2.23
2018-02-25T09:59:10.860Z,-2.18
2018-02-25T10:00:24.641Z,-2.13
2018-02-25T10:01:38.887Z,-2.13
2018-02-25T10:02:52.707Z,-2.02
2018-02-25T10:04:07.256Z,-2.02
2018-02-25T10:05:21.751Z,-1.94
2018-02-25T10:06:35.758Z,-1.9
2018-02-25T10:07:50.048Z,-1.89
2018-02-25T10:09:04.362Z,-1.75
2018-02-25T10:10:18.120Z,-1.86
2018-02-25T10:11:32.109Z,-1.74
2018-02-25T10:12:46.349Z,-1.71
2018-02-25T10:14:00.354Z,-1.86
2018-02-25T10:15:14.621Z,-1.9
2018-02-25T10:16:28.406Z,-1.87
2018-02-25T10:17:42.912Z,-1.75
2018-02-25T10:18:56.641Z,-1.75
2018-02-25T10:20:10.854Z,-1.71
2018-02-25T10:21:24.947Z,-1.92
2018-02-25T10:22:39.442Z,-1.78
2018-02-25T10:23:53.938Z,-1.92
2018-02-25T10:25:07.738Z,-1.99
2018-02-25T10:26:21.973Z,-1.93
2018-02-25T10:27:35.751Z,-1.87
2018-02-25T10:28:50.064Z,-1.96
2018-02-25T10:30:04.545Z,-1.76
2018-02-25T10:31:19.032Z,-1.72
2018-02-25T10:32:32.784Z,-1.66
2018-02-25T10:33:47.319Z,-1.64
2018-02-25T10:35:00.858Z,-1.61
2018-02-25T10:36:14.886Z,-1.6
2018-02-25T10:37:29.180Z,-1.63
2018-02-25T10:38:43.132Z,-1.58
2018-02-25T10:39:57.450Z,-1.56
2018-02-25T10:41:11.473Z,-1.61
2018-02-25T10:42:25.712Z,-1.64
2018-02-25T10:43:39.687Z,-1.58
2018-02-25T10:44:54.163Z,-1.46
2018-02-25T10:46:08.422Z,-1.42
2018-02-25T10:47:22.193Z,-1.45
2018-02-25T10:48:36.452Z,-1.42
2018-02-25T10:49:50.669Z,-1.43
2018-02-25T10:51:04.680Z,-1.39
2018-02-25T10:52:18.933Z,-1.38
2018-02-25T10:53:32.793Z,-1.39
2018-02-25T10:54:47.528Z,-1.39
2018-02-25T10:56:02.319Z,-1.3
2018-02-25T10:57:15.884Z,-1.4
2018-02-25T10:58:30.353Z,-1.42
2018-02-25T10:59:44.632Z,-1.32
2018-02-25T11:00:58.889Z,-1.21
2018-02-25T11:02:12.396Z,-1.15
2018-02-25T11:03:26.880Z,-1.19
2018-02-25T11:04:40.621Z,-1.19
2018-02-25T11:05:55.139Z,-1.06
2018-02-25T11:07:09.402Z,-1.09
2018-02-25T11:08:23.657Z,-1.11
2018-02-25T11:09:37.463Z,-1.24
2018-02-25T11:10:50.960Z,-1.07
2018-02-25T11:12:04.718Z,-1.15
2018-02-25T11:13:18.998Z,-1.18
2018-02-25T11:14:33.012Z,-1.11
2018-02-25T11:15:46.790Z,-1.19
2018-02-25T11:17:00.560Z,-1.04
2018-02-25T11:18:14.555Z,-1.17
2018-02-25T11:19:28.848Z,-1.19
2018-02-25T11:20:43.324Z,-1.04
2018-02-25T11:21:58.127Z,-0.99
2018-02-25T11:23:12.422Z,-0.91
2018-02-25T11:24:26.464Z,-0.96
2018-02-25T11:25:40.724Z,-0.91
2018-02-25T11:26:55.394Z,-0.87
2018-02-25T11:28:09.648Z,-0.84
2018-02-25T11:29:23.686Z,-0.85
2018-02-25T11:30:38.442Z,-0.84
2018-02-25T11:31:52.895Z,-0.8
2018-02-25T11:33:07.195Z,-0.78
2018-02-25T11:34:21.505Z,-0.82
2018-02-25T11:35:35.274Z,-0.8
2018-02-25T11:36:49.296Z,-0.75
2018-02-25T11:38:03.114Z,-0.67
2018-02-25T11:39:16.951Z,-0.66
2018-02-25T11:40:30.986Z,-0.66
2018-02-25T11:41:44.530Z,-0.82
2018-02-25T11:42:58.795Z,-0.87
2018-02-25T11:44:12.837Z,-0.75
2018-02-25T11:45:26.125Z,-0.67
2018-02-25T11:46:40.152Z,-0.51
2018-02-25T11:47:54.445Z,-0.39
2018-02-25T11:49:08.970Z,-0.23
2018-02-25T11:50:23.253Z,-0.24
2018-02-25T11:51:37.504Z,-0.18
2018-02-25T11:52:51.762Z,-0.3
2018-02-25T11:54:05.553Z,-0.35
2018-02-25T11:55:19.406Z,-0.39
2018-02-25T11:56:33.726Z,-0.31
2018-02-25T11:57:48.212Z,-0.31
2018-02-25T11:59:02.475Z,-0.36
2018-02-25T12:00:16.864Z,-0.39
2018-02-25T12:01:30.940Z,-0.33
2018-02-25T12:02:44.306Z,-0.48
2018-02-25T12:03:58.321Z,-0.36
2018-02-25T12:05:12.828Z,-0.38
2018-02-25T12:06:26.611Z,-0.38
2018-02-25T12:07:40.619Z,-0.33
2018-02-25T12:08:55.087Z,-0.3
2018-02-25T12:10:09.525Z,-0.39
2018-02-25T12:11:23.555Z,-0.54
2018-02-25T12:12:37.797Z,-0.57
2018-02-25T12:13:52.273Z,-0.57
2018-02-25T12:15:06.342Z,-0.51
2018-02-25T12:16:20.580Z,-0.39
2018-02-25T12:17:34.822Z,-0.39
2018-02-25T12:18:48.604Z,-0.38
2018-02-25T12:20:02.152Z,-0.38
2018-02-25T12:21:16.682Z,-0.41
2018-02-25T12:22:31.215Z,-0.36
2018-02-25T12:23:45.460Z,-0.35
2018-02-25T12:24:59.916Z,-0.36
2018-02-25T12:26:13.976Z,-0.35
2018-02-25T12:27:27.736Z,-0.31
2018-02-25T12:28:42.308Z,-0.38
2018-02-25T12:29:56.810Z,-0.15
2018-02-25T12:31:11.091Z,-0.1
2018-02-25T12:32:25.335Z,-0.09
2018-02-25T12:33:38.978Z,0.05
2018-02-25T12:34:53.333Z,0.02
2018-02-25T12:36:08.072Z,0.05
2018-02-25T12:37:21.873Z,0.05
2018-02-25T12:38:35.642Z,-0.07
2018-02-25T12:39:50.112Z,0.01
2018-02-25T12:41:04.387Z,-0.03
2018-02-25T12:42:18.472Z,0.11
2018-02-25T12:43:32.262Z,-0.05
2018-02-25T12:44:46.769Z,0
2018-02-25T12:46:00.293Z,-0.06
2018-02-25T12:47:14.571Z,0.12
2018-02-25T12:48:28.598Z,0.12
2018-02-25T12:49:43.154Z,0.15
2018-02-25T12:50:56.938Z,0.11
2018-02-25T12:52:11.237Z,0.11
2018-02-25T12:53:25.756Z,0.31
2018-02-25T12:54:40.253Z,0.24
2018-02-25T12:55:54.268Z,0.36
2018-02-25T12:57:08.604Z,0.34
2018-02-25T12:58:22.404Z,0.26
2018-02-25T12:59:36.683Z,0.31
2018-02-25T13:00:50.953Z,0.26
2018-02-25T13:02:05.488Z,0.23
2018-02-25T13:03:19.760Z,0.26
2018-02-25T13:04:33.835Z,0.13
2018-02-25T13:05:48.059Z,0.24
2018-02-25T13:07:01.836Z,0.15
2018-02-25T13:08:15.843Z,0.12
2018-02-25T13:09:30.644Z,0.12
2018-02-25T13:10:44.458Z,0.26
2018-02-25T13:11:58.566Z,0.08
2018-02-25T13:13:12.847Z,0.18
2018-02-25T13:14:27.134Z,0.02
2018-02-25T13:15:41.649Z,-0.03
2018-02-25T13:16:55.925Z,0.23
2018-02-25T13:18:09.687Z,0.29
2018-02-25T13:19:23.670Z,0.45
2018-02-25T13:20:38.196Z,0.33
2018-02-25T13:21:52.461Z,0.39
2018-02-25T13:23:06.895Z,0.45
2018-02-25T13:24:20.968Z,0.36
2018-02-25T13:25:35.410Z,0.49
2018-02-25T13:26:49.226Z,0.44
2018-02-25T13:28:03.268Z,0.31
2018-02-25T13:29:17.308Z,0.34
2018-02-25T13:30:31.575Z,0.42
2018-02-25T13:31:45.358Z,0.39
2018-02-25T13:32:59.405Z,0.4
2018-02-25T13:34:13.678Z,0.44
2018-02-25T13:35:28.444Z,0.31
2018-02-25T13:36:42.960Z,0.44
2018-02-25T13:37:57.282Z,0.47
2018-02-25T13:39:11.562Z,0.44
2018-02-25T13:40:25.814Z,0.39
2018-02-25T13:41:39.847Z,0.29
2018-02-25T13:42:54.092Z,0.4
2018-02-25T13:44:08.372Z,0.48
2018-02-25T13:45:22.874Z,0.47
2018-02-25T13:46:37.200Z,0.39
2018-02-25T13:47:51.226Z,0.45
2018-02-25T13:49:05.252Z,0.63
2018-02-25T13:50:19.789Z,0.63
2018-02-25T13:51:34.064Z,0.63
2018-02-25T13:52:47.585Z,0.68
2018-02-25T13:54:01.962Z,0.56
2018-02-25T13:55:16.034Z,0.48
2018-02-25T13:56:30.548Z,0.44
2018-02-25T13:57:45.091Z,0.33
2018-02-25T13:58:59.401Z,0.47
2018-02-25T14:00:13.941Z,0.55
2018-02-25T14:01:27.943Z,0.49
2018-02-25T14:02:42.052Z,0.56
2018-02-25T14:03:55.840Z,0.7
2018-02-25T14:05:10.355Z,0.61
2018-02-25T14:06:24.141Z,0.63
2018-02-25T14:07:38.636Z,0.66
2018-02-25T14:08:52.663Z,0.49
2018-02-25T14:10:06.706Z,0.45
2018-02-25T14:11:20.961Z,0.47
2018-02-25T14:12:35.311Z,0.45
2018-02-25T14:13:49.962Z,0.64
2018-02-25T14:15:04.523Z,0.7
2018-02-25T14:16:18.864Z,0.74
2018-02-25T14:17:32.928Z,0.66
2018-02-25T14:18:46.969Z,0.66
2018-02-25T14:20:01.088Z,0.63
2018-02-25T14:21:15.751Z,0.63
2018-02-25T14:22:30.036Z,0.64
2018-02-25T14:23:44.428Z,0.42
2018-02-25T14:24:58.292Z,0.52
2018-02-25T14:26:12.593Z,0.59
2018-02-25T14:27:26.457Z,0.66
2018-02-25T14:28:40.487Z,0.52
2018-02-25T14:30:09.225Z,0.71
2018-02-25T14:31:23.972Z,0.67
2018-02-25T14:32:38.640Z,0.47
2018-02-25T14:33:52.695Z,0.58
2018-02-25T14:35:06.760Z,0.63
2018-02-25T14:36:21.050Z,0.59
2018-02-25T14:37:35.355Z,0.59
2018-02-25T14:38:49.379Z,0.55
2018-02-25T14:40:04.088Z,0.66
2018-02-25T14:41:18.538Z,0.77
2018-02-25T14:42:32.704Z,0.78
2018-02-25T14:43:46.807Z,0.78
2018-02-25T14:45:01.336Z,0.64
2018-02-25T14:46:14.987Z,0.63
2018-02-25T14:47:29.355Z,0.51
2018-02-25T14:48:43.147Z,0.52
2018-02-25T14:49:57.459Z,0.71
2018-02-25T14:51:11.764Z,0.74
2018-02-25T14:52:26.054Z,0.77
2018-02-25T14:53:39.589Z,0.88
2018-02-25T14:54:53.889Z,0.71
2018-02-25T14:56:07.930Z,0.74
2018-02-25T14:57:22.458Z,0.58
2018-02-25T14:58:36.495Z,0.59
2018-02-25T14:59:50.763Z,0.66
2018-02-25T15:01:04.563Z,0.59
2018-02-25T15:02:18.388Z,0.66
2018-02-25T15:03:32.716Z,0.49
2018-02-25T15:04:47.100Z,0.59
2018-02-25T15:06:01.177Z,0.59
2018-02-25T15:07:15.005Z,0.52
2018-02-25T15:08:29.793Z,0.73
2018-02-25T15:09:43.341Z,0.66
2018-02-25T15:10:58.008Z,0.61
2018-02-25T15:12:11.998Z,0.66
2018-02-25T15:13:25.998Z,0.61
2018-02-25T15:14:40.236Z,0.71
2018-02-25T15:15:54.830Z,0.52
2018-02-25T15:17:09.592Z,0.59
2018-02-25T15:18:24.106Z,0.55
2018-02-25T15:19:38.010Z,0.47
2018-02-25T15:20:52.817Z,0.49
2018-02-25T15:22:06.306Z,0.45
2018-02-25T15:23:19.896Z,0.44
2018-02-25T15:24:34.226Z,0.47
2018-02-25T15:25:48.260Z,0.47
2018-02-25T15:27:02.296Z,0.4
2018-02-25T15:28:16.809Z,0.55
2018-02-25T15:29:31.187Z,0.36
2018-02-25T15:30:44.720Z,0.34
2018-02-25T15:31:58.833Z,0.34
2018-02-25T15:33:13.339Z,0.39
2018-02-25T15:34:27.343Z,0.34
2018-02-25T15:35:41.602Z,0.37
2018-02-25T15:36:55.906Z,0.31
2018-02-25T15:38:09.972Z,0.37
2018-02-25T15:39:23.990Z,0.37
2018-02-25T15:40:38.038Z,0.4
2018-02-25T15:41:52.959Z,0.44
2018-02-25T15:43:07.478Z,0.23
2018-02-25T15:44:21.733Z,0.3
2018-02-25T15:45:36.220Z,0.29
2018-02-25T15:46:50.356Z,0.33
2018-02-25T15:48:04.099Z,0.37
2018-02-25T15:49:18.535Z,0.31
2018-02-25T15:50:32.810Z,0.2
2018-02-25T15:51:46.621Z,0.3
2018-02-25T15:53:00.818Z,0.3
2018-02-25T15:54:15.258Z,0.27
2018-02-25T15:55:29.277Z,0.12
2018-02-25T15:56:43.350Z,0.12
2018-02-25T15:57:57.634Z,0.15
2018-02-25T15:59:12.026Z,0.09
2018-02-25T16:00:26.070Z,0.02
2018-02-25T16:01:39.852Z,0.05
2018-02-25T16:02:54.104Z,0
2018-02-25T16:04:08.352Z,0.06
2018-02-25T16:05:22.991Z,-0.06
2018-02-25T16:06:37.031Z,0.01